createdAt,value
2019-03-19T00:01:55.473Z,28.97
2019-03-19T00:04:59.363Z,24.70
2019-03-19T00:08:03.312Z,25.23
2019-03-19T00:11:07.242Z,24.20
2019-03-19T00:14:11.080Z,26.70
2019-03-19T00:17:15.006Z,25.60
2019-03-19T00:20:18.851Z,25.47
2019-03-19T00:23:22.744Z,26.10
2019-03-19T00:26:26.593Z,26.83
2019-03-19T00:29:30.723Z,23.47
2019-03-19T00:32:34.591Z,23.93
2019-03-19T00:35:38.498Z,24.20
2019-03-19T00:38:42.357Z,21.50
2019-03-19T00:41:46.242Z,21.17
2019-03-19T00:44:50.083Z,21.73
2019-03-19T00:47:53.992Z,25.90
2019-03-19T00:50:57.812Z,23.13
2019-03-19T00:54:01.722Z,22.00
2019-03-19T00:57:05.588Z,26.73
2019-03-19T01:00:14.515Z,27.97
2019-03-19T01:03:18.352Z,34.27
2019-03-19T01:06:22.243Z,26.77
2019-03-19T01:09:26.129Z,27.50
2019-03-19T01:12:29.988Z,32.47
2019-03-19T01:15:34.175Z,26.73
2019-03-19T01:18:38.054Z,29.03
2019-03-19T01:21:42.014Z,27.27
2019-03-19T01:24:45.924Z,28.77
2019-03-19T01:27:49.790Z,27.53
2019-03-19T01:30:53.667Z,27.43
2019-03-19T01:33:57.544Z,28.63
2019-03-19T01:37:01.452Z,27.03
2019-03-19T01:40:13.471Z,30.30
2019-03-19T01:43:17.341Z,27.47
2019-03-19T01:46:21.188Z,28.97
2019-03-19T01:49:25.052Z,29.80
2019-03-19T01:52:28.903Z,26.53
2019-03-19T01:55:32.798Z,31.07
2019-03-19T01:58:36.967Z,25.13
2019-03-19T02:01:40.850Z,26.27
2019-03-19T02:04:44.660Z,21.77
2019-03-19T02:07:48.720Z,24.17
2019-03-19T02:10:52.557Z,23.70
2019-03-19T02:13:56.456Z,20.97
2019-03-19T02:17:00.284Z,27.93
2019-03-19T02:20:05.273Z,23.77
2019-03-19T02:23:09.132Z,18.73
2019-03-19T02:26:16.842Z,19.80
2019-03-19T02:29:18.500Z,22.93
2019-03-19T02:32:23.240Z,20.30
2019-03-19T02:35:27.128Z,21.83
2019-03-19T02:38:31.043Z,19.10
2019-03-19T02:41:34.893Z,20.77
2019-03-19T02:44:38.859Z,21.33
2019-03-19T02:47:42.797Z,18.90
2019-03-19T02:50:46.731Z,18.03
2019-03-19T02:53:50.573Z,23.60
2019-03-19T02:56:54.493Z,19.73
2019-03-19T02:59:58.341Z,19.63
2019-03-19T03:03:02.186Z,16.17
2019-03-19T03:06:06.024Z,23.10
2019-03-19T03:09:09.909Z,17.57
2019-03-19T03:12:13.723Z,14.87
2019-03-19T03:15:17.629Z,18.90
2019-03-19T03:18:21.455Z,16.13
2019-03-19T03:21:25.379Z,18.43
2019-03-19T03:24:29.187Z,21.47
2019-03-19T03:27:33.080Z,19.00
2019-03-19T03:30:36.924Z,15.93
2019-03-19T03:33:40.783Z,21.27
2019-03-19T03:36:44.614Z,18.23
2019-03-19T03:39:48.515Z,20.30
2019-03-19T03:42:52.355Z,17.00
2019-03-19T03:45:56.249Z,17.60
2019-03-19T03:49:00.164Z,14.47
2019-03-19T03:52:04.053Z,18.13
2019-03-19T03:55:10.499Z,18.00
2019-03-19T03:58:14.418Z,20.70
2019-03-19T04:01:18.262Z,15.77
2019-03-19T04:04:22.144Z,14.47
2019-03-19T04:07:26.165Z,15.23
2019-03-19T04:10:30.068Z,16.47
2019-03-19T04:13:33.898Z,12.80
2019-03-19T04:16:37.779Z,15.67
2019-03-19T04:19:41.616Z,18.10
2019-03-19T04:22:45.536Z,17.73
2019-03-19T04:25:49.357Z,19.77
2019-03-19T04:28:53.262Z,17.93
2019-03-19T04:31:57.113Z,22.43
2019-03-19T04:35:00.986Z,17.30
2019-03-19T04:38:04.839Z,18.60
2019-03-19T04:41:08.741Z,26.03
2019-03-19T04:44:12.572Z,21.50
2019-03-19T04:47:16.472Z,23.97
2019-03-19T04:50:20.314Z,22.37
2019-03-19T04:53:24.458Z,24.07
2019-03-19T04:56:28.338Z,23.43
2019-03-19T04:59:32.227Z,20.70
2019-03-19T05:02:36.107Z,22.57
2019-03-19T05:05:40.018Z,22.33
2019-03-19T05:08:43.858Z,26.40
2019-03-19T05:11:47.838Z,31.57
2019-03-19T05:14:51.692Z,27.93
2019-03-19T05:17:55.593Z,25.27
2019-03-19T05:20:59.441Z,27.97
2019-03-19T05:24:03.384Z,29.77
2019-03-19T05:27:07.214Z,28.13
2019-03-19T05:30:18.337Z,27.30
2019-03-19T05:33:22.143Z,21.17
2019-03-19T05:36:27.139Z,21.37
2019-03-19T05:39:30.986Z,21.73
2019-03-19T05:42:34.879Z,19.67
2019-03-19T05:45:38.721Z,18.37
2019-03-19T05:48:42.601Z,19.13
2019-03-19T05:51:46.427Z,20.53
2019-03-19T05:54:50.293Z,22.57
2019-03-19T05:57:54.113Z,18.43
2019-03-19T06:00:58.019Z,19.90
2019-03-19T06:04:01.863Z,19.27
2019-03-19T06:07:05.774Z,21.97
2019-03-19T06:10:13.779Z,22.13
2019-03-19T06:13:17.651Z,20.17
2019-03-19T06:16:21.495Z,27.47
2019-03-19T06:19:25.414Z,25.60
2019-03-19T06:22:29.271Z,30.80
2019-03-19T06:25:33.117Z,30.20
2019-03-19T06:28:36.964Z,29.97
2019-03-19T06:31:40.817Z,26.67
2019-03-19T06:34:44.676Z,27.23
2019-03-19T06:37:48.564Z,29.30
2019-03-19T06:40:52.419Z,27.37
2019-03-19T06:43:56.466Z,22.10
2019-03-19T06:47:00.312Z,21.80
2019-03-19T06:50:12.132Z,20.83
2019-03-19T06:53:15.952Z,22.80
2019-03-19T06:56:19.841Z,18.43
2019-03-19T06:59:23.670Z,19.83
2019-03-19T07:02:27.603Z,22.57
2019-03-19T07:05:31.424Z,21.50
2019-03-19T07:08:35.321Z,21.87
2019-03-19T07:11:39.165Z,23.57
2019-03-19T07:14:43.046Z,23.90
2019-03-19T07:17:46.889Z,25.47
2019-03-19T07:20:50.945Z,20.30
2019-03-19T07:23:54.807Z,20.43
2019-03-19T07:26:58.681Z,18.47
2019-03-19T07:30:02.541Z,15.87
2019-03-19T07:33:06.502Z,14.73
2019-03-19T07:36:10.316Z,19.70
2019-03-19T07:39:14.220Z,13.10
2019-03-19T07:42:18.034Z,19.07
2019-03-19T07:45:23.323Z,15.37
2019-03-19T07:48:27.165Z,16.97
2019-03-19T07:51:31.118Z,21.17
2019-03-19T07:54:34.951Z,24.93
2019-03-19T07:57:38.829Z,18.63
2019-03-19T08:00:43.158Z,17.00
2019-03-19T08:03:47.026Z,23.33
2019-03-19T08:06:50.868Z,17.90
2019-03-19T08:09:54.742Z,15.90
2019-03-19T08:12:58.866Z,16.03
2019-03-19T08:16:02.804Z,13.93
2019-03-19T08:19:06.673Z,15.47
2019-03-19T08:22:10.565Z,20.07
2019-03-19T08:25:15.145Z,17.13
2019-03-19T08:28:19.029Z,19.70
2019-03-19T08:31:22.842Z,20.07
2019-03-19T08:34:26.784Z,16.17
2019-03-19T08:37:30.792Z,20.63
2019-03-19T08:40:34.731Z,15.70
2019-03-19T08:43:38.686Z,15.90
2019-03-19T08:46:42.545Z,18.97
2019-03-19T08:49:46.378Z,17.17
2019-03-19T08:52:50.264Z,22.87
2019-03-19T08:55:54.639Z,17.83
2019-03-19T08:59:05.824Z,14.80
2019-03-19T09:02:04.090Z,17.23
2019-03-19T09:05:09.675Z,14.63
2019-03-19T09:08:13.532Z,15.90
2019-03-19T09:11:17.427Z,19.20
2019-03-19T09:14:21.233Z,18.70
2019-03-19T09:17:25.577Z,15.40
2019-03-19T09:20:29.634Z,10.63
2019-03-19T09:23:33.612Z,17.07
2019-03-19T09:26:37.403Z,13.50
2019-03-19T09:29:41.294Z,19.00
2019-03-19T09:32:47.653Z,19.83
2019-03-19T09:35:52.098Z,15.13
2019-03-19T09:38:56.137Z,21.73
2019-03-19T09:42:00.060Z,16.23
2019-03-19T09:45:05.046Z,25.07
2019-03-19T09:48:08.981Z,14.67
2019-03-19T09:51:12.839Z,17.77
2019-03-19T09:54:21.203Z,17.93
2019-03-19T09:57:25.650Z,19.93
2019-03-19T10:00:29.632Z,19.77
2019-03-19T10:03:33.741Z,18.23
2019-03-19T10:06:37.684Z,20.13
2019-03-19T10:09:41.767Z,20.03
2019-03-19T10:12:45.727Z,18.67
2019-03-19T10:15:49.573Z,18.40
2019-03-19T10:18:53.605Z,19.50
2019-03-19T10:21:57.511Z,17.13
2019-03-19T10:25:01.421Z,19.30
2019-03-19T10:28:06.303Z,14.60
2019-03-19T10:31:10.215Z,23.70
2019-03-19T10:34:14.044Z,19.30
2019-03-19T10:37:17.962Z,21.60
2019-03-19T10:40:22.413Z,21.03
2019-03-19T10:43:26.311Z,17.73
2019-03-19T10:46:30.164Z,23.83
2019-03-19T10:49:34.068Z,24.60
2019-03-19T10:52:37.904Z,21.70
2019-03-19T10:55:47.181Z,22.87
2019-03-19T10:58:51.028Z,20.23
2019-03-19T11:01:57.544Z,17.03
2019-03-19T11:05:03.193Z,20.40
2019-03-19T11:08:11.413Z,18.53
2019-03-19T11:11:16.321Z,19.30
2019-03-19T11:14:43.097Z,27.60
2019-03-19T11:17:46.945Z,20.33
2019-03-19T11:20:58.706Z,18.77
2019-03-19T11:24:06.567Z,19.73
2019-03-19T11:27:13.178Z,18.47
2019-03-19T11:30:28.493Z,22.00
2019-03-19T11:33:36.275Z,15.13
2019-03-19T11:36:40.568Z,41.17
2019-03-19T11:39:44.541Z,186.07
2019-03-19T11:42:48.523Z,63.80
2019-03-19T11:45:52.517Z,32.30
2019-03-19T11:48:56.378Z,27.50
2019-03-19T11:52:00.351Z,18.63
2019-03-19T11:55:06.751Z,12.20
2019-03-19T11:58:10.740Z,17.20
2019-03-19T12:01:14.656Z,14.63
2019-03-19T12:04:18.521Z,15.60
2019-03-19T12:07:27.098Z,11.23
2019-03-19T12:10:30.970Z,12.87
2019-03-19T12:13:34.784Z,14.50
2019-03-19T12:16:38.651Z,11.67
2019-03-19T12:19:42.477Z,14.30
2019-03-19T12:22:46.367Z,12.13
2019-03-19T12:25:50.622Z,13.77
2019-03-19T12:28:54.489Z,11.50
2019-03-19T12:31:58.337Z,7.97
2019-03-19T12:35:02.275Z,10.10
2019-03-19T12:38:06.128Z,9.30
2019-03-19T12:41:10.112Z,15.77
2019-03-19T12:44:13.930Z,13.13
2019-03-19T12:47:17.837Z,15.27
2019-03-19T12:50:26.594Z,10.97
2019-03-19T12:53:30.562Z,14.73
2019-03-19T12:56:34.344Z,15.57
2019-03-19T12:59:38.237Z,11.93
2019-03-19T13:02:42.054Z,13.70
2019-03-19T13:05:45.952Z,11.93
2019-03-19T13:08:49.782Z,11.83
2019-03-19T13:11:53.676Z,13.17
2019-03-19T13:14:57.502Z,18.10
2019-03-19T13:18:01.415Z,12.37
2019-03-19T13:21:05.689Z,14.23
2019-03-19T13:24:09.748Z,12.97
2019-03-19T13:27:13.574Z,15.37
2019-03-19T13:30:20.433Z,19.13
2019-03-19T13:33:24.285Z,12.87
2019-03-19T13:36:28.160Z,14.57
2019-03-19T13:39:31.995Z,13.87
2019-03-19T13:42:35.884Z,12.90
2019-03-19T13:45:39.735Z,13.33
2019-03-19T13:48:43.612Z,13.00
2019-03-19T13:51:47.480Z,18.10
2019-03-19T13:54:51.468Z,98.70
2019-03-19T13:57:55.302Z,42.47
2019-03-19T14:00:59.212Z,53.47
2019-03-19T14:04:03.097Z,19.40
2019-03-19T14:07:06.982Z,19.63
2019-03-19T14:10:18.535Z,22.67
2019-03-19T14:13:22.404Z,13.77
2019-03-19T14:16:26.332Z,12.27
2019-03-19T14:19:30.238Z,10.77
2019-03-19T14:22:34.098Z,14.03
2019-03-19T14:25:38.001Z,15.53
2019-03-19T14:28:42.127Z,14.73
2019-03-19T14:31:46.024Z,13.97
2019-03-19T14:34:49.850Z,13.43
2019-03-19T14:37:53.809Z,12.23
2019-03-19T14:40:57.703Z,16.17
2019-03-19T14:44:01.669Z,13.47
2019-03-19T14:47:05.516Z,15.57
2019-03-19T14:50:12.819Z,11.87
2019-03-19T14:53:16.601Z,19.80
2019-03-19T14:56:20.496Z,18.23
2019-03-19T14:59:24.383Z,15.43
2019-03-19T15:02:28.302Z,36.00
2019-03-19T15:05:32.447Z,16.60
2019-03-19T15:08:36.305Z,22.60
2019-03-19T15:11:40.700Z,26.50
2019-03-19T15:14:45.002Z,26.50
2019-03-19T15:17:49.772Z,15.73
2019-03-19T15:20:53.640Z,15.70
2019-03-19T15:23:57.470Z,23.47
2019-03-19T15:27:01.396Z,16.43
2019-03-19T15:30:14.510Z,17.37
2019-03-19T15:33:18.407Z,15.33
2019-03-19T15:36:22.237Z,15.47
2019-03-19T15:39:26.121Z,15.23
2019-03-19T15:42:29.961Z,16.90
2019-03-19T15:45:33.840Z,19.97
2019-03-19T15:48:37.677Z,18.57
2019-03-19T15:51:41.663Z,18.97
2019-03-19T15:54:45.687Z,23.43
2019-03-19T15:57:49.586Z,18.83
2019-03-19T16:00:53.406Z,21.03
2019-03-19T16:03:57.309Z,21.83
2019-03-19T16:07:01.169Z,22.23
2019-03-19T16:10:07.755Z,20.47
2019-03-19T16:13:11.604Z,18.83
2019-03-19T16:16:17.273Z,17.50
2019-03-19T16:19:20.961Z,19.10
2019-03-19T16:22:25.846Z,19.83
2019-03-19T16:25:29.786Z,19.27
2019-03-19T16:28:33.656Z,22.30
2019-03-19T16:31:37.780Z,31.17
2019-03-19T16:34:41.655Z,28.03
2019-03-19T16:37:45.521Z,32.13
2019-03-19T16:40:49.411Z,31.13
2019-03-19T16:43:53.275Z,30.23
2019-03-19T16:46:57.175Z,34.33
2019-03-19T16:50:01.041Z,40.95
2019-03-19T16:53:04.922Z,48.27
2019-03-19T16:56:08.830Z,44.33
2019-03-19T16:59:12.860Z,46.37
2019-03-19T17:02:18.075Z,61.63
2019-03-19T17:05:21.961Z,50.47
2019-03-19T17:08:25.855Z,46.77
2019-03-19T17:11:29.721Z,52.83
2019-03-19T17:14:33.637Z,57.10
2019-03-19T17:17:37.465Z,63.43
2019-03-19T17:20:41.465Z,61.63
2019-03-19T17:23:45.417Z,100.67
2019-03-19T17:26:49.330Z,92.60
2019-03-19T17:29:53.141Z,87.10
2019-03-19T17:32:57.017Z,85.87
2019-03-19T17:36:00.975Z,79.53
2019-03-19T17:39:07.607Z,92.30
2019-03-19T17:42:11.490Z,96.70
2019-03-19T17:45:16.734Z,93.23
2019-03-19T17:48:20.621Z,97.07
2019-03-19T17:51:24.581Z,95.70
2019-03-19T17:54:28.463Z,95.07
2019-03-19T17:57:32.325Z,88.97
2019-03-19T18:00:37.771Z,94.67
2019-03-19T18:03:41.655Z,91.53
2019-03-19T18:06:45.524Z,79.83
2019-03-19T18:09:49.376Z,84.93
2019-03-19T18:12:53.291Z,104.10
2019-03-19T18:15:57.161Z,119.00
2019-03-19T18:19:01.126Z,126.37
2019-03-19T18:22:05.010Z,120.77
2019-03-19T18:25:10.987Z,108.70
2019-03-19T18:28:15.778Z,101.23
2019-03-19T18:31:19.602Z,97.63
2019-03-19T18:34:23.505Z,113.10
2019-03-19T18:37:27.352Z,107.80
2019-03-19T18:40:31.264Z,103.00
2019-03-19T18:43:35.160Z,90.63
2019-03-19T18:46:39.051Z,86.73
2019-03-19T18:49:43.009Z,99.17
2019-03-19T18:52:46.952Z,97.87
2019-03-19T18:55:50.974Z,92.17
2019-03-19T18:58:55.005Z,99.17
2019-03-19T19:01:58.927Z,98.37
2019-03-19T19:05:02.768Z,99.60
2019-03-19T19:08:08.229Z,105.20
2019-03-19T19:11:12.121Z,89.03
2019-03-19T19:14:16.086Z,85.33
2019-03-19T19:17:20.039Z,79.63
2019-03-19T19:20:24.140Z,79.70
2019-03-19T19:23:28.009Z,77.00
2019-03-19T19:26:32.101Z,74.13
2019-03-19T19:29:36.301Z,82.77
2019-03-19T19:32:40.274Z,94.43
2019-03-19T19:35:44.292Z,89.47
2019-03-19T19:38:48.175Z,97.47
2019-03-19T19:41:52.067Z,92.27
2019-03-19T19:44:56.011Z,95.93
2019-03-19T19:47:59.951Z,78.33
2019-03-19T19:51:03.857Z,83.33
2019-03-19T19:54:08.357Z,71.80
2019-03-19T19:57:12.164Z,81.47
2019-03-19T20:00:20.147Z,88.10
2019-03-19T20:03:24.033Z,78.70
2019-03-19T20:06:29.303Z,78.47
2019-03-19T20:09:33.228Z,83.57
2019-03-19T20:12:39.399Z,84.33
2019-03-19T20:15:43.318Z,81.63
2019-03-19T20:18:47.242Z,86.83
2019-03-19T20:21:52.530Z,94.97
2019-03-19T20:24:56.432Z,89.13
2019-03-19T20:28:00.380Z,79.77
2019-03-19T20:31:04.311Z,77.23
2019-03-19T20:34:08.161Z,79.63
2019-03-19T20:37:12.172Z,90.63
2019-03-19T20:40:17.636Z,90.10
2019-03-19T20:43:21.540Z,80.57
2019-03-19T20:46:25.462Z,89.67
2019-03-19T20:49:29.406Z,89.30
2019-03-19T20:52:33.410Z,93.40
2019-03-19T20:55:37.355Z,87.70
2019-03-19T20:58:43.657Z,93.10
2019-03-19T21:01:46.879Z,98.80
2019-03-19T21:04:50.816Z,106.00
2019-03-19T21:07:54.858Z,99.03
2019-03-19T21:10:58.795Z,102.63
2019-03-19T21:14:02.770Z,103.37
2019-03-19T21:17:06.670Z,101.63
2019-03-19T21:20:10.679Z,95.77
2019-03-19T21:23:14.559Z,98.20
2019-03-19T21:26:18.441Z,90.17
2019-03-19T21:29:22.335Z,95.03
2019-03-19T21:32:26.438Z,92.37
2019-03-19T21:35:30.331Z,94.07
2019-03-19T21:38:34.182Z,107.20
2019-03-19T21:41:39.101Z,111.33
2019-03-19T21:44:43.006Z,111.57
2019-03-19T21:47:46.933Z,95.10
2019-03-19T21:50:50.814Z,107.03
2019-03-19T21:53:54.765Z,105.53
2019-03-19T21:56:58.781Z,109.77
2019-03-19T22:00:05.808Z,110.50
2019-03-19T22:03:09.691Z,102.73
2019-03-19T22:06:13.603Z,113.47
2019-03-19T22:09:17.436Z,109.97
2019-03-19T22:12:21.323Z,115.27
2019-03-19T22:15:25.822Z,115.77
2019-03-19T22:18:29.710Z,113.50
2019-03-19T22:21:33.605Z,121.50
2019-03-19T22:24:37.511Z,107.27
2019-03-19T22:27:41.403Z,109.33
2019-03-19T22:30:45.232Z,110.13
2019-03-19T22:33:49.144Z,107.20
2019-03-19T22:36:53.031Z,99.90
2019-03-19T22:39:56.906Z,108.53
2019-03-19T22:43:00.802Z,107.07
2019-03-19T22:46:04.646Z,106.00
2019-03-19T22:49:08.562Z,119.27
2019-03-19T22:52:12.431Z,111.57
2019-03-19T22:55:16.656Z,120.67
2019-03-19T22:58:20.582Z,133.23
2019-03-19T23:01:24.463Z,125.60
2019-03-19T23:04:28.371Z,126.13
2019-03-19T23:07:32.344Z,124.93
2019-03-19T23:10:36.552Z,129.13
2019-03-19T23:13:40.452Z,124.00
2019-03-19T23:16:44.305Z,133.63
2019-03-19T23:19:48.210Z,127.00
2019-03-19T23:22:52.068Z,121.73
2019-03-19T23:25:55.977Z,126.97
2019-03-19T23:28:59.890Z,123.07
2019-03-19T23:32:03.778Z,136.43
2019-03-19T23:35:07.777Z,130.60
2019-03-19T23:38:11.611Z,128.77
2019-03-19T23:41:15.538Z,124.10
2019-03-19T23:44:19.453Z,121.23
2019-03-19T23:47:24.001Z,118.80
2019-03-19T23:50:27.894Z,123.33
2019-03-19T23:53:31.745Z,136.77
2019-03-19T23:56:35.621Z,130.43
2019-03-19T23:59:39.460Z,138.00
